sensor_id;sensor_type;location;lat;lon;timestamp;temperature;humidity
18444;DHT22;9350;53.176;8.194;2023-02-20T00:00:48;6.80;99.90
18444;DHT22;9350;53.176;8.194;2023-02-20T00:03:15;6.80;99.90
18444;DHT22;9350;53.176;8.194;2023-02-20T00:05:43;6.80;99.90
18444;DHT22;9350;53.176;8.194;2023-02-20T00:08:10;6.80;99.90
18444;DHT22;9350;53.176;8.194;2023-02-20T00:10:37;6.80;99.90
18444;DHT22;9350;53.176;8.194;2023-02-20T00:13:04;6.80;99.90
18444;DHT22;9350;53.176;8.194;2023-02-20T00:15:31;6.80;99.90
18444;DHT22;9350;53.176;8.194;2023-02-20T00:17:58;6.80;99.90
18444;DHT22;9350;53.176;8.194;2023-02-20T00:20:25;6.80;99.90
18444;DHT22;9350;53.176;8.194;2023-02-20T00:22:56;6.70;99.90
18444;DHT22;9350;53.176;8.194;2023-02-20T00:25:22;6.80;99.90
18444;DHT22;9350;53.176;8.194;2023-02-20T00:27:49;6.80;99.90
18444;DHT22;9350;53.176;8.194;2023-02-20T00:30:18;6.80;99.90
18444;DHT22;9350;53.176;8.194;2023-02-20T00:32:45;6.90;99.90
18444;DHT22;9350;53.176;8.194;2023-02-20T00:35:13;6.80;99.90
18444;DHT22;9350;53.176;8.194;2023-02-20T00:37:39;6.80;99.90
18444;DHT22;9350;53.176;8.194;2023-02-20T00:40:08;6.80;99.90
18444;DHT22;9350;53.176;8.194;2023-02-20T00:42:35;6.80;99.90
18444;DHT22;9350;53.176;8.194;2023-02-20T00:45:02;6.70;99.90
18444;DHT22;9350;53.176;8.194;2023-02-20T00:47:29;6.80;99.90
18444;DHT22;9350;53.176;8.194;2023-02-20T00:49:56;6.80;99.90
18444;DHT22;9350;53.176;8.194;2023-02-20T00:52:23;6.80;99.90
18444;DHT22;9350;53.176;8.194;2023-02-20T00:54:50;6.80;99.90
18444;DHT22;9350;53.176;8.194;2023-02-20T00:57:18;6.80;99.90
18444;DHT22;9350;53.176;8.194;2023-02-20T00:59:45;6.90;99.90
18444;DHT22;9350;53.176;8.194;2023-02-20T01:02:12;6.90;99.90
18444;DHT22;9350;53.176;8.194;2023-02-20T01:04:38;6.80;99.90
18444;DHT22;9350;53.176;8.194;2023-02-20T01:07:05;6.90;99.90
18444;DHT22;9350;53.176;8.194;2023-02-20T01:09:32;6.90;99.90
18444;DHT22;9350;53.176;8.194;2023-02-20T01:11:59;6.90;99.90
18444;DHT22;9350;53.176;8.194;2023-02-20T01:14:27;6.90;99.90
18444;DHT22;9350;53.176;8.194;2023-02-20T01:16:54;6.80;99.90
18444;DHT22;9350;53.176;8.194;2023-02-20T01:19:22;6.90;99.90
18444;DHT22;9350;53.176;8.194;2023-02-20T01:21:49;6.80;99.90
18444;DHT22;9350;53.176;8.194;2023-02-20T01:24:17;6.80;99.90
18444;DHT22;9350;53.176;8.194;2023-02-20T01:26:45;6.80;99.90
18444;DHT22;9350;53.176;8.194;2023-02-20T01:29:12;6.80;99.90
18444;DHT22;9350;53.176;8.194;2023-02-20T01:31:46;6.80;99.90
18444;DHT22;9350;53.176;8.194;2023-02-20T01:34:12;6.80;99.90
18444;DHT22;9350;53.176;8.194;2023-02-20T01:36:44;6.90;99.90
18444;DHT22;9350;53.176;8.194;2023-02-20T01:39:11;7.00;99.90
18444;DHT22;9350;53.176;8.194;2023-02-20T01:41:38;6.90;99.90
18444;DHT22;9350;53.176;8.194;2023-02-20T01:44:07;6.90;99.90
18444;DHT22;9350;53.176;8.194;2023-02-20T01:46:47;7.00;99.90
18444;DHT22;9350;53.176;8.194;2023-02-20T01:49:20;6.90;99.90
18444;DHT22;9350;53.176;8.194;2023-02-20T01:51:51;6.90;99.90
18444;DHT22;9350;53.176;8.194;2023-02-20T01:54:20;6.90;99.90
18444;DHT22;9350;53.176;8.194;2023-02-20T01:56:48;6.90;99.90
18444;DHT22;9350;53.176;8.194;2023-02-20T01:59:16;6.90;99.90
18444;DHT22;9350;53.176;8.194;2023-02-20T02:01:45;6.90;99.90
18444;DHT22;9350;53.176;8.194;2023-02-20T02:04:12;6.90;99.90
18444;DHT22;9350;53.176;8.194;2023-02-20T02:06:42;7.00;99.90
18444;DHT22;9350;53.176;8.194;2023-02-20T02:09:15;7.00;99.90
18444;DHT22;9350;53.176;8.194;2023-02-20T02:11:44;6.90;99.90
18444;DHT22;9350;53.176;8.194;2023-02-20T02:14:12;7.00;99.90
18444;DHT22;9350;53.176;8.194;2023-02-20T02:16:46;7.00;99.90
18444;DHT22;9350;53.176;8.194;2023-02-20T02:19:35;7.00;99.90
18444;DHT22;9350;53.176;8.194;2023-02-20T02:25:24;7.00;99.90
18444;DHT22;9350;53.176;8.194;2023-02-20T02:28:16;7.00;99.90
18444;DHT22;9350;53.176;8.194;2023-02-20T02:31:17;6.90;99.90
18444;DHT22;9350;53.176;8.194;2023-02-20T02:37:12;6.90;99.90
18444;DHT22;9350;53.176;8.194;2023-02-20T02:39:47;7.00;99.90
18444;DHT22;9350;53.176;8.194;2023-02-20T02:42:22;7.00;99.90
18444;DHT22;9350;53.176;8.194;2023-02-20T02:44:55;7.00;99.90
18444;DHT22;9350;53.176;8.194;2023-02-20T02:47:29;7.00;99.90
18444;DHT22;9350;53.176;8.194;2023-02-20T02:50:01;7.00;99.90
18444;DHT22;9350;53.176;8.194;2023-02-20T02:52:32;7.00;99.90
18444;DHT22;9350;53.176;8.194;2023-02-20T02:55:14;7.00;99.90
18444;DHT22;9350;53.176;8.194;2023-02-20T02:57:42;7.00;99.90
18444;DHT22;9350;53.176;8.194;2023-02-20T03:00:10;7.00;99.90
18444;DHT22;9350;53.176;8.194;2023-02-20T03:02:43;7.00;99.90
18444;DHT22;9350;53.176;8.194;2023-02-20T03:05:13;7.00;99.90
18444;DHT22;9350;53.176;8.194;2023-02-20T03:07:43;7.00;99.90
18444;DHT22;9350;53.176;8.194;2023-02-20T03:10:13;7.00;99.90
18444;DHT22;9350;53.176;8.194;2023-02-20T03:12:48;7.00;99.90
18444;DHT22;9350;53.176;8.194;2023-02-20T03:15:21;7.00;99.90
18444;DHT22;9350;53.176;8.194;2023-02-20T03:18:08;7.00;99.90
18444;DHT22;9350;53.176;8.194;2023-02-20T03:20:37;7.10;99.90
18444;DHT22;9350;53.176;8.194;2023-02-20T03:23:07;7.10;99.90
18444;DHT22;9350;53.176;8.194;2023-02-20T03:25:37;7.10;99.90
18444;DHT22;9350;53.176;8.194;2023-02-20T03:28:08;7.10;99.90
18444;DHT22;9350;53.176;8.194;2023-02-20T03:30:39;7.10;99.90
18444;DHT22;9350;53.176;8.194;2023-02-20T03:33:11;7.10;99.90
18444;DHT22;9350;53.176;8.194;2023-02-20T03:35:58;7.20;99.90
18444;DHT22;9350;53.176;8.194;2023-02-20T03:38:47;7.20;99.90
18444;DHT22;9350;53.176;8.194;2023-02-20T03:41:35;7.30;99.90
18444;DHT22;9350;53.176;8.194;2023-02-20T03:44:23;7.20;99.90
18444;DHT22;9350;53.176;8.194;2023-02-20T03:46:52;7.10;99.90
18444;DHT22;9350;53.176;8.194;2023-02-20T03:49:24;7.40;99.90
18444;DHT22;9350;53.176;8.194;2023-02-20T03:52:11;7.10;99.90
18444;DHT22;9350;53.176;8.194;2023-02-20T03:54:41;7.10;99.90
18444;DHT22;9350;53.176;8.194;2023-02-20T03:57:11;7.20;99.90
18444;DHT22;9350;53.176;8.194;2023-02-20T03:59:41;7.20;99.90
18444;DHT22;9350;53.176;8.194;2023-02-20T04:02:14;7.20;99.90
18444;DHT22;9350;53.176;8.194;2023-02-20T04:04:46;7.20;99.90
18444;DHT22;9350;53.176;8.194;2023-02-20T04:07:18;7.10;99.90
18444;DHT22;9350;53.176;8.194;2023-02-20T04:09:47;7.10;99.90
18444;DHT22;9350;53.176;8.194;2023-02-20T04:12:17;7.20;99.90
18444;DHT22;9350;53.176;8.194;2023-02-20T04:14:47;7.10;99.90
18444;DHT22;9350;53.176;8.194;2023-02-20T04:17:19;7.20;99.90
18444;DHT22;9350;53.176;8.194;2023-02-20T04:19:47;7.20;99.90
18444;DHT22;9350;53.176;8.194;2023-02-20T04:22:19;7.20;99.90
18444;DHT22;9350;53.176;8.194;2023-02-20T04:24:53;7.20;99.90
18444;DHT22;9350;53.176;8.194;2023-02-20T04:27:22;7.20;99.90
18444;DHT22;9350;53.176;8.194;2023-02-20T04:29:48;7.40;99.90
18444;DHT22;9350;53.176;8.194;2023-02-20T04:32:16;7.30;99.90
18444;DHT22;9350;53.176;8.194;2023-02-20T04:34:42;7.30;99.90
18444;DHT22;9350;53.176;8.194;2023-02-20T04:37:12;7.30;99.90
18444;DHT22;9350;53.176;8.194;2023-02-20T04:39:40;7.30;99.90
18444;DHT22;9350;53.176;8.194;2023-02-20T04:42:09;7.30;99.90
18444;DHT22;9350;53.176;8.194;2023-02-20T04:44:36;7.40;99.90
18444;DHT22;9350;53.176;8.194;2023-02-20T04:47:06;7.40;99.90
18444;DHT22;9350;53.176;8.194;2023-02-20T04:49:33;7.40;99.90
18444;DHT22;9350;53.176;8.194;2023-02-20T04:52:00;7.30;99.90
18444;DHT22;9350;53.176;8.194;2023-02-20T04:54:26;7.30;99.90
18444;DHT22;9350;53.176;8.194;2023-02-20T04:56:53;7.30;99.90
18444;DHT22;9350;53.176;8.194;2023-02-20T04:59:22;7.30;99.90
18444;DHT22;9350;53.176;8.194;2023-02-20T05:01:49;7.40;99.90
18444;DHT22;9350;53.176;8.194;2023-02-20T05:04:17;7.40;99.90
18444;DHT22;9350;53.176;8.194;2023-02-20T05:06:47;7.40;99.90
18444;DHT22;9350;53.176;8.194;2023-02-20T05:09:14;7.30;99.90
18444;DHT22;9350;53.176;8.194;2023-02-20T05:11:41;7.40;99.90
18444;DHT22;9350;53.176;8.194;2023-02-20T05:14:08;7.30;99.90
18444;DHT22;9350;53.176;8.194;2023-02-20T05:16:37;7.30;99.90
18444;DHT22;9350;53.176;8.194;2023-02-20T05:19:04;7.30;99.90
18444;DHT22;9350;53.176;8.194;2023-02-20T05:21:31;7.30;99.90
18444;DHT22;9350;53.176;8.194;2023-02-20T05:24:15;7.20;99.90
18444;DHT22;9350;53.176;8.194;2023-02-20T05:26:42;7.40;99.90
18444;DHT22;9350;53.176;8.194;2023-02-20T05:29:09;7.30;99.90
18444;DHT22;9350;53.176;8.194;2023-02-20T05:31:38;7.30;99.90
18444;DHT22;9350;53.176;8.194;2023-02-20T05:34:05;7.30;99.90
18444;DHT22;9350;53.176;8.194;2023-02-20T05:36:32;7.20;99.90
18444;DHT22;9350;53.176;8.194;2023-02-20T05:38:58;7.20;99.90
18444;DHT22;9350;53.176;8.194;2023-02-20T05:41:25;7.20;99.90
18444;DHT22;9350;53.176;8.194;2023-02-20T05:43:52;7.30;99.90
18444;DHT22;9350;53.176;8.194;2023-02-20T05:46:22;7.30;99.90
18444;DHT22;9350;53.176;8.194;2023-02-20T05:48:51;7.30;99.90
18444;DHT22;9350;53.176;8.194;2023-02-20T05:51:20;7.30;99.90
18444;DHT22;9350;53.176;8.194;2023-02-20T05:53:46;7.30;99.90
18444;DHT22;9350;53.176;8.194;2023-02-20T05:56:13;7.30;99.90
18444;DHT22;9350;53.176;8.194;2023-02-20T05:58:41;7.30;99.90
18444;DHT22;9350;53.176;8.194;2023-02-20T06:01:08;7.30;99.90
18444;DHT22;9350;53.176;8.194;2023-02-20T06:03:35;7.30;99.90
18444;DHT22;9350;53.176;8.194;2023-02-20T06:06:03;7.30;99.90
18444;DHT22;9350;53.176;8.194;2023-02-20T06:08:30;7.30;99.90
18444;DHT22;9350;53.176;8.194;2023-02-20T06:10:57;7.40;99.90
18444;DHT22;9350;53.176;8.194;2023-02-20T06:13:23;7.30;99.90
18444;DHT22;9350;53.176;8.194;2023-02-20T06:15:50;7.30;99.90
18444;DHT22;9350;53.176;8.194;2023-02-20T06:18:17;7.40;99.90
18444;DHT22;9350;53.176;8.194;2023-02-20T06:20:44;7.30;99.90
18444;DHT22;9350;53.176;8.194;2023-02-20T06:23:12;7.30;99.90
18444;DHT22;9350;53.176;8.194;2023-02-20T06:25:39;7.40;99.90
18444;DHT22;9350;53.176;8.194;2023-02-20T06:28:05;7.40;99.90
18444;DHT22;9350;53.176;8.194;2023-02-20T06:30:32;7.40;99.90
18444;DHT22;9350;53.176;8.194;2023-02-20T06:32:59;7.40;99.90
18444;DHT22;9350;53.176;8.194;2023-02-20T06:35:26;7.30;99.90
18444;DHT22;9350;53.176;8.194;2023-02-20T06:37:52;7.40;99.90
18444;DHT22;9350;53.176;8.194;2023-02-20T06:40:21;7.40;99.90
18444;DHT22;9350;53.176;8.194;2023-02-20T06:42:47;7.40;99.90
18444;DHT22;9350;53.176;8.194;2023-02-20T06:45:14;7.40;99.90
18444;DHT22;9350;53.176;8.194;2023-02-20T06:47:41;7.40;99.90
18444;DHT22;9350;53.176;8.194;2023-02-20T06:50:08;7.40;99.90
18444;DHT22;9350;53.176;8.194;2023-02-20T06:52:35;7.40;99.90
18444;DHT22;9350;53.176;8.194;2023-02-20T06:55:02;7.40;99.90
18444;DHT22;9350;53.176;8.194;2023-02-20T06:57:32;7.40;99.90
18444;DHT22;9350;53.176;8.194;2023-02-20T06:59:59;7.40;99.90
18444;DHT22;9350;53.176;8.194;2023-02-20T07:02:25;7.40;99.90
18444;DHT22;9350;53.176;8.194;2023-02-20T07:04:52;7.50;99.90
18444;DHT22;9350;53.176;8.194;2023-02-20T07:07:19;7.40;99.90
18444;DHT22;9350;53.176;8.194;2023-02-20T07:09:46;7.90;99.90
18444;DHT22;9350;53.176;8.194;2023-02-20T07:12:12;7.60;99.90
18444;DHT22;9350;53.176;8.194;2023-02-20T07:14:41;7.60;99.90
18444;DHT22;9350;53.176;8.194;2023-02-20T07:17:07;7.60;99.90
18444;DHT22;9350;53.176;8.194;2023-02-20T07:19:34;7.50;99.90
18444;DHT22;9350;53.176;8.194;2023-02-20T07:22:01;7.60;99.90
18444;DHT22;9350;53.176;8.194;2023-02-20T07:24:28;7.60;99.90
18444;DHT22;9350;53.176;8.194;2023-02-20T07:26:54;7.60;99.90
18444;DHT22;9350;53.176;8.194;2023-02-20T07:29:21;7.60;99.90
18444;DHT22;9350;53.176;8.194;2023-02-20T07:31:49;7.70;99.90
18444;DHT22;9350;53.176;8.194;2023-02-20T07:34:16;7.60;99.90
18444;DHT22;9350;53.176;8.194;2023-02-20T07:36:43;7.60;99.90
18444;DHT22;9350;53.176;8.194;2023-02-20T07:39:12;7.60;99.90
18444;DHT22;9350;53.176;8.194;2023-02-20T07:41:38;7.70;99.90
18444;DHT22;9350;53.176;8.194;2023-02-20T07:44:05;7.70;99.90
18444;DHT22;9350;53.176;8.194;2023-02-20T07:46:32;7.70;99.90
18444;DHT22;9350;53.176;8.194;2023-02-20T07:49:01;7.70;99.90
18444;DHT22;9350;53.176;8.194;2023-02-20T07:51:29;7.70;99.90
18444;DHT22;9350;53.176;8.194;2023-02-20T07:53:55;7.70;99.90
18444;DHT22;9350;53.176;8.194;2023-02-20T07:56:23;7.80;99.90
18444;DHT22;9350;53.176;8.194;2023-02-20T07:58:50;7.80;99.90
18444;DHT22;9350;53.176;8.194;2023-02-20T08:01:17;7.80;99.90
18444;DHT22;9350;53.176;8.194;2023-02-20T08:03:45;7.80;99.90
18444;DHT22;9350;53.176;8.194;2023-02-20T08:06:15;7.80;99.90
18444;DHT22;9350;53.176;8.194;2023-02-20T08:08:43;7.90;99.90
18444;DHT22;9350;53.176;8.194;2023-02-20T08:11:12;7.80;99.90
18444;DHT22;9350;53.176;8.194;2023-02-20T08:13:39;7.80;99.90
18444;DHT22;9350;53.176;8.194;2023-02-20T08:16:07;7.80;99.90
18444;DHT22;9350;53.176;8.194;2023-02-20T08:18:34;7.90;99.90
18444;DHT22;9350;53.176;8.194;2023-02-20T08:21:01;7.90;99.90
18444;DHT22;9350;53.176;8.194;2023-02-20T08:23:29;7.90;99.90
18444;DHT22;9350;53.176;8.194;2023-02-20T08:25:56;8.20;99.90
18444;DHT22;9350;53.176;8.194;2023-02-20T08:28:23;8.00;99.90
18444;DHT22;9350;53.176;8.194;2023-02-20T08:30:49;8.00;99.90
18444;DHT22;9350;53.176;8.194;2023-02-20T08:33:16;8.00;99.90
18444;DHT22;9350;53.176;8.194;2023-02-20T08:35:43;8.10;99.90
18444;DHT22;9350;53.176;8.194;2023-02-20T08:38:23;7.90;99.90
18444;DHT22;9350;53.176;8.194;2023-02-20T08:40:52;8.00;99.90
18444;DHT22;9350;53.176;8.194;2023-02-20T08:43:19;8.00;99.90
18444;DHT22;9350;53.176;8.194;2023-02-20T08:45:46;8.00;99.90
18444;DHT22;9350;53.176;8.194;2023-02-20T08:48:13;8.10;99.90
18444;DHT22;9350;53.176;8.194;2023-02-20T08:50:40;8.10;99.90
18444;DHT22;9350;53.176;8.194;2023-02-20T08:53:07;8.10;99.90
18444;DHT22;9350;53.176;8.194;2023-02-20T08:55:34;8.20;99.90
18444;DHT22;9350;53.176;8.194;2023-02-20T08:58:02;8.20;99.90
18444;DHT22;9350;53.176;8.194;2023-02-20T09:00:29;8.10;99.90
18444;DHT22;9350;53.176;8.194;2023-02-20T09:02:56;8.20;99.90
18444;DHT22;9350;53.176;8.194;2023-02-20T09:05:22;8.10;99.90
18444;DHT22;9350;53.176;8.194;2023-02-20T09:07:49;8.10;99.90
18444;DHT22;9350;53.176;8.194;2023-02-20T09:10:17;8.10;99.90
18444;DHT22;9350;53.176;8.194;2023-02-20T09:12:44;8.20;99.90
18444;DHT22;9350;53.176;8.194;2023-02-20T09:15:13;8.20;99.90
18444;DHT22;9350;53.176;8.194;2023-02-20T09:17:42;8.20;99.90
18444;DHT22;9350;53.176;8.194;2023-02-20T09:20:10;8.20;99.90
18444;DHT22;9350;53.176;8.194;2023-02-20T09:22:37;8.20;99.90
18444;DHT22;9350;53.176;8.194;2023-02-20T09:25:04;8.20;99.90
18444;DHT22;9350;53.176;8.194;2023-02-20T09:27:32;8.30;99.90
18444;DHT22;9350;53.176;8.194;2023-02-20T09:29:58;8.30;99.90
18444;DHT22;9350;53.176;8.194;2023-02-20T09:32:26;8.30;99.90
18444;DHT22;9350;53.176;8.194;2023-02-20T09:34:53;8.20;99.90
18444;DHT22;9350;53.176;8.194;2023-02-20T09:37:22;8.30;99.90
18444;DHT22;9350;53.176;8.194;2023-02-20T09:39:49;8.40;99.90
18444;DHT22;9350;53.176;8.194;2023-02-20T09:42:22;8.40;99.90
18444;DHT22;9350;53.176;8.194;2023-02-20T09:45:02;8.40;99.90
18444;DHT22;9350;53.176;8.194;2023-02-20T09:47:41;8.40;99.90
18444;DHT22;9350;53.176;8.194;2023-02-20T09:50:13;8.40;99.90
18444;DHT22;9350;53.176;8.194;2023-02-20T09:52:42;8.40;99.90
18444;DHT22;9350;53.176;8.194;2023-02-20T09:55:13;8.40;99.90
18444;DHT22;9350;53.176;8.194;2023-02-20T09:57:43;8.40;99.90
18444;DHT22;9350;53.176;8.194;2023-02-20T10:00:21;8.40;99.90
18444;DHT22;9350;53.176;8.194;2023-02-20T10:02:56;8.50;99.90
18444;DHT22;9350;53.176;8.194;2023-02-20T10:05:28;8.50;99.90
18444;DHT22;9350;53.176;8.194;2023-02-20T10:07:55;8.50;99.90
18444;DHT22;9350;53.176;8.194;2023-02-20T10:10:24;8.40;99.90
18444;DHT22;9350;53.176;8.194;2023-02-20T10:12:59;8.50;99.90
18444;DHT22;9350;53.176;8.194;2023-02-20T10:15:34;8.50;99.90
18444;DHT22;9350;53.176;8.194;2023-02-20T10:18:16;8.60;99.90
18444;DHT22;9350;53.176;8.194;2023-02-20T10:20:53;8.70;99.90
18444;DHT22;9350;53.176;8.194;2023-02-20T10:23:27;8.60;99.90
18444;DHT22;9350;53.176;8.194;2023-02-20T10:26:00;8.60;99.90
18444;DHT22;9350;53.176;8.194;2023-02-20T10:28:29;8.70;99.90
18444;DHT22;9350;53.176;8.194;2023-02-20T10:30:58;8.70;99.90
18444;DHT22;9350;53.176;8.194;2023-02-20T10:33:32;8.80;99.90
18444;DHT22;9350;53.176;8.194;2023-02-20T10:36:07;8.70;99.90
18444;DHT22;9350;53.176;8.194;2023-02-20T10:38:41;8.70;99.90
18444;DHT22;9350;53.176;8.194;2023-02-20T10:41:16;8.70;99.90
18444;DHT22;9350;53.176;8.194;2023-02-20T10:43:49;8.70;99.90
18444;DHT22;9350;53.176;8.194;2023-02-20T10:46:24;8.70;99.90
18444;DHT22;9350;53.176;8.194;2023-02-20T10:48:56;8.70;99.90
18444;DHT22;9350;53.176;8.194;2023-02-20T10:51:27;8.80;99.90
18444;DHT22;9350;53.176;8.194;2023-02-20T10:54:00;8.70;99.90
18444;DHT22;9350;53.176;8.194;2023-02-20T10:56:34;8.70;99.90
18444;DHT22;9350;53.176;8.194;2023-02-20T10:59:08;8.80;99.90
18444;DHT22;9350;53.176;8.194;2023-02-20T11:01:36;8.70;99.90
18444;DHT22;9350;53.176;8.194;2023-02-20T11:04:09;8.70;99.90
18444;DHT22;9350;53.176;8.194;2023-02-20T11:06:39;8.80;99.90
18444;DHT22;9350;53.176;8.194;2023-02-20T11:09:07;8.80;99.90
18444;DHT22;9350;53.176;8.194;2023-02-20T11:11:37;8.70;99.90
18444;DHT22;9350;53.176;8.194;2023-02-20T11:14:10;8.80;99.90
18444;DHT22;9350;53.176;8.194;2023-02-20T11:16:42;8.80;99.90
18444;DHT22;9350;53.176;8.194;2023-02-20T11:19:16;8.80;99.90
18444;DHT22;9350;53.176;8.194;2023-02-20T11:21:46;8.90;99.90
18444;DHT22;9350;53.176;8.194;2023-02-20T11:24:26;8.80;99.90
18444;DHT22;9350;53.176;8.194;2023-02-20T11:27:06;8.90;99.90
18444;DHT22;9350;53.176;8.194;2023-02-20T11:29:40;8.90;99.90
18444;DHT22;9350;53.176;8.194;2023-02-20T11:32:30;8.90;99.90
18444;DHT22;9350;53.176;8.194;2023-02-20T11:35:24;8.90;99.90
18444;DHT22;9350;53.176;8.194;2023-02-20T11:38:18;8.90;99.90
18444;DHT22;9350;53.176;8.194;2023-02-20T11:40:47;8.90;99.90
18444;DHT22;9350;53.176;8.194;2023-02-20T11:43:30;8.90;99.90
18444;DHT22;9350;53.176;8.194;2023-02-20T11:46:07;9.00;99.90
18444;DHT22;9350;53.176;8.194;2023-02-20T11:48:34;9.00;99.90
18444;DHT22;9350;53.176;8.194;2023-02-20T11:51:03;9.00;99.90
18444;DHT22;9350;53.176;8.194;2023-02-20T11:53:31;9.00;99.90
18444;DHT22;9350;53.176;8.194;2023-02-20T11:56:09;9.00;99.90
18444;DHT22;9350;53.176;8.194;2023-02-20T11:58:37;8.90;99.90
18444;DHT22;9350;53.176;8.194;2023-02-20T12:01:05;9.00;99.90
18444;DHT22;9350;53.176;8.194;2023-02-20T12:03:33;9.00;99.90
18444;DHT22;9350;53.176;8.194;2023-02-20T12:06:26;9.10;99.90
18444;DHT22;9350;53.176;8.194;2023-02-20T12:08:52;9.00;99.90
18444;DHT22;9350;53.176;8.194;2023-02-20T12:11:21;9.10;99.90
18444;DHT22;9350;53.176;8.194;2023-02-20T12:13:51;9.00;99.90
18444;DHT22;9350;53.176;8.194;2023-02-20T12:16:33;9.10;99.90
18444;DHT22;9350;53.176;8.194;2023-02-20T12:19:08;9.10;99.90
18444;DHT22;9350;53.176;8.194;2023-02-20T12:21:48;9.10;99.90
18444;DHT22;9350;53.176;8.194;2023-02-20T12:24:34;9.10;99.90
18444;DHT22;9350;53.176;8.194;2023-02-20T12:27:17;9.10;99.90
18444;DHT22;9350;53.176;8.194;2023-02-20T12:29:54;9.10;99.90
18444;DHT22;9350;53.176;8.194;2023-02-20T12:32:32;9.20;99.90
18444;DHT22;9350;53.176;8.194;2023-02-20T12:35:17;9.20;99.90
18444;DHT22;9350;53.176;8.194;2023-02-20T12:38:03;9.20;99.90
18444;DHT22;9350;53.176;8.194;2023-02-20T12:40:44;9.20;99.90
18444;DHT22;9350;53.176;8.194;2023-02-20T12:43:24;9.20;99.90
18444;DHT22;9350;53.176;8.194;2023-02-20T12:46:00;9.10;99.90
18444;DHT22;9350;53.176;8.194;2023-02-20T12:48:40;9.20;99.90
18444;DHT22;9350;53.176;8.194;2023-02-20T12:51:13;9.10;99.90
18444;DHT22;9350;53.176;8.194;2023-02-20T12:53:56;9.30;99.90
18444;DHT22;9350;53.176;8.194;2023-02-20T12:56:40;9.30;99.90
18444;DHT22;9350;53.176;8.194;2023-02-20T12:59:20;9.20;99.90
18444;DHT22;9350;53.176;8.194;2023-02-20T13:01:49;9.30;99.90
18444;DHT22;9350;53.176;8.194;2023-02-20T13:04:24;9.20;99.90
18444;DHT22;9350;53.176;8.194;2023-02-20T13:06:57;9.30;99.90
18444;DHT22;9350;53.176;8.194;2023-02-20T13:09:30;9.20;99.90
18444;DHT22;9350;53.176;8.194;2023-02-20T13:12:02;9.20;99.90
18444;DHT22;9350;53.176;8.194;2023-02-20T13:14:38;9.20;99.90
18444;DHT22;9350;53.176;8.194;2023-02-20T13:17:15;9.20;99.90
18444;DHT22;9350;53.176;8.194;2023-02-20T13:19:50;9.20;99.90
18444;DHT22;9350;53.176;8.194;2023-02-20T13:22:20;9.80;99.90
18444;DHT22;9350;53.176;8.194;2023-02-20T13:24:48;9.20;99.90
18444;DHT22;9350;53.176;8.194;2023-02-20T13:27:27;9.20;99.90
18444;DHT22;9350;53.176;8.194;2023-02-20T13:29:59;9.30;99.90
18444;DHT22;9350;53.176;8.194;2023-02-20T13:32:29;9.20;99.90
18444;DHT22;9350;53.176;8.194;2023-02-20T13:38:08;9.30;99.90
18444;DHT22;9350;53.176;8.194;2023-02-20T13:40:39;9.30;99.90
18444;DHT22;9350;53.176;8.194;2023-02-20T13:43:25;9.30;99.90
18444;DHT22;9350;53.176;8.194;2023-02-20T13:46:11;9.20;99.90
18444;DHT22;9350;53.176;8.194;2023-02-20T13:48:40;9.30;99.90
18444;DHT22;9350;53.176;8.194;2023-02-20T13:51:33;9.30;99.90
18444;DHT22;9350;53.176;8.194;2023-02-20T13:54:21;9.30;99.90
18444;DHT22;9350;53.176;8.194;2023-02-20T13:56:52;9.30;99.90
18444;DHT22;9350;53.176;8.194;2023-02-20T13:59:21;9.40;99.90
18444;DHT22;9350;53.176;8.194;2023-02-20T14:01:55;9.40;99.90
18444;DHT22;9350;53.176;8.194;2023-02-20T14:04:23;9.40;99.90
18444;DHT22;9350;53.176;8.194;2023-02-20T14:06:50;9.40;99.90
18444;DHT22;9350;53.176;8.194;2023-02-20T14:09:20;9.40;99.90
18444;DHT22;9350;53.176;8.194;2023-02-20T14:11:47;9.50;99.90
18444;DHT22;9350;53.176;8.194;2023-02-20T14:14:25;9.60;99.90
18444;DHT22;9350;53.176;8.194;2023-02-20T14:17:03;9.80;99.90
18444;DHT22;9350;53.176;8.194;2023-02-20T14:19:30;9.50;99.90
18444;DHT22;9350;53.176;8.194;2023-02-20T14:22:13;9.50;99.90
18444;DHT22;9350;53.176;8.194;2023-02-20T14:24:40;9.60;99.90
18444;DHT22;9350;53.176;8.194;2023-02-20T14:27:26;9.50;99.90
18444;DHT22;9350;53.176;8.194;2023-02-20T14:30:05;9.50;99.90
18444;DHT22;9350;53.176;8.194;2023-02-20T14:32:33;9.50;99.90
18444;DHT22;9350;53.176;8.194;2023-02-20T14:35:06;9.50;99.90
18444;DHT22;9350;53.176;8.194;2023-02-20T14:37:42;9.60;99.90
18444;DHT22;9350;53.176;8.194;2023-02-20T14:40:16;9.60;99.90
18444;DHT22;9350;53.176;8.194;2023-02-20T14:42:45;9.50;99.90
18444;DHT22;9350;53.176;8.194;2023-02-20T14:45:16;9.70;99.90
18444;DHT22;9350;53.176;8.194;2023-02-20T14:47:51;9.60;99.90
18444;DHT22;9350;53.176;8.194;2023-02-20T14:50:21;9.70;99.90
18444;DHT22;9350;53.176;8.194;2023-02-20T14:53:00;9.60;99.90
18444;DHT22;9350;53.176;8.194;2023-02-20T14:55:27;9.60;99.90
18444;DHT22;9350;53.176;8.194;2023-02-20T14:57:53;9.70;99.90
18444;DHT22;9350;53.176;8.194;2023-02-20T15:00:33;9.70;99.90
18444;DHT22;9350;53.176;8.194;2023-02-20T15:03:00;9.70;99.90
18444;DHT22;9350;53.176;8.194;2023-02-20T15:05:32;9.60;99.90
18444;DHT22;9350;53.176;8.194;2023-02-20T15:08:02;9.60;99.90
18444;DHT22;9350;53.176;8.194;2023-02-20T15:10:38;9.60;99.90
18444;DHT22;9350;53.176;8.194;2023-02-20T15:13:08;9.70;99.90
18444;DHT22;9350;53.176;8.194;2023-02-20T15:15:38;9.70;99.90
18444;DHT22;9350;53.176;8.194;2023-02-20T15:18:08;9.70;99.90
18444;DHT22;9350;53.176;8.194;2023-02-20T15:20:37;9.70;99.90
18444;DHT22;9350;53.176;8.194;2023-02-20T15:23:09;9.70;99.90
18444;DHT22;9350;53.176;8.194;2023-02-20T15:25:36;9.70;99.90
18444;DHT22;9350;53.176;8.194;2023-02-20T15:28:08;9.80;99.90
18444;DHT22;9350;53.176;8.194;2023-02-20T15:31:02;9.80;99.90
18444;DHT22;9350;53.176;8.194;2023-02-20T15:33:31;9.80;99.90
18444;DHT22;9350;53.176;8.194;2023-02-20T15:35:59;9.80;99.90
18444;DHT22;9350;53.176;8.194;2023-02-20T15:38:28;9.90;99.90
18444;DHT22;9350;53.176;8.194;2023-02-20T15:40:55;9.80;99.90
18444;DHT22;9350;53.176;8.194;2023-02-20T15:43:23;9.80;99.90
18444;DHT22;9350;53.176;8.194;2023-02-20T15:45:50;9.80;99.90
18444;DHT22;9350;53.176;8.194;2023-02-20T15:48:18;9.80;99.90
18444;DHT22;9350;53.176;8.194;2023-02-20T15:50:46;9.80;99.90
18444;DHT22;9350;53.176;8.194;2023-02-20T15:53:14;9.80;99.90
18444;DHT22;9350;53.176;8.194;2023-02-20T15:55:43;9.80;99.90
18444;DHT22;9350;53.176;8.194;2023-02-20T15:58:20;9.80;99.90
18444;DHT22;9350;53.176;8.194;2023-02-20T16:00:48;9.80;99.90
18444;DHT22;9350;53.176;8.194;2023-02-20T16:03:15;9.80;99.90
18444;DHT22;9350;53.176;8.194;2023-02-20T16:05:44;9.80;99.90
18444;DHT22;9350;53.176;8.194;2023-02-20T16:08:10;9.80;99.90
18444;DHT22;9350;53.176;8.194;2023-02-20T16:10:37;9.90;99.90
18444;DHT22;9350;53.176;8.194;2023-02-20T16:13:04;9.80;99.90
18444;DHT22;9350;53.176;8.194;2023-02-20T16:15:31;9.90;99.90
18444;DHT22;9350;53.176;8.194;2023-02-20T16:17:58;9.80;99.90
18444;DHT22;9350;53.176;8.194;2023-02-20T16:20:26;9.80;99.90
18444;DHT22;9350;53.176;8.194;2023-02-20T16:22:55;9.70;99.90
18444;DHT22;9350;53.176;8.194;2023-02-20T16:25:23;9.70;99.90
18444;DHT22;9350;53.176;8.194;2023-02-20T16:27:51;9.70;99.90
18444;DHT22;9350;53.176;8.194;2023-02-20T16:30:20;9.70;99.90
18444;DHT22;9350;53.176;8.194;2023-02-20T16:32:48;9.60;99.90
18444;DHT22;9350;53.176;8.194;2023-02-20T16:35:16;9.70;99.90